sensor_id;sensor_type;location;lat;lon;timestamp;P1;durP1;ratioP1;P2;durP2;ratioP2
75894;SDS011;64573;50.328;15.014;2023-06-22T00:02:04;9.70;;;5.60;;
75894;SDS011;64573;50.328;15.014;2023-06-22T00:04:29;8.65;;;5.88;;
75894;SDS011;64573;50.328;15.014;2023-06-22T00:06:55;11.35;;;5.80;;
75894;SDS011;64573;50.328;15.014;2023-06-22T00:09:20;13.27;;;6.78;;
75894;SDS011;64573;50.328;15.014;2023-06-22T00:11:45;12.23;;;5.75;;
75894;SDS011;64573;50.328;15.014;2023-06-22T00:14:11;11.43;;;6.20;;
75894;SDS011;64573;50.328;15.014;2023-06-22T00:16:36;22.80;;;7.63;;
75894;SDS011;64573;50.328;15.014;2023-06-22T00:19:02;13.60;;;6.18;;
75894;SDS011;64573;50.328;15.014;2023-06-22T00:21:28;9.73;;;5.95;;
75894;SDS011;64573;50.328;15.014;2023-06-22T00:23:54;8.05;;;5.40;;
75894;SDS011;64573;50.328;15.014;2023-06-22T00:26:20;10.40;;;6.15;;
75894;SDS011;64573;50.328;15.014;2023-06-22T00:28:46;10.68;;;6.10;;
75894;SDS011;64573;50.328;15.014;2023-06-22T00:31:12;12.30;;;6.40;;
75894;SDS011;64573;50.328;15.014;2023-06-22T00:33:37;9.60;;;5.57;;
75894;SDS011;64573;50.328;15.014;2023-06-22T00:36:03;9.65;;;5.82;;
75894;SDS011;64573;50.328;15.014;2023-06-22T00:38:28;10.50;;;5.95;;
75894;SDS011;64573;50.328;15.014;2023-06-22T00:40:54;10.60;;;6.15;;
75894;SDS011;64573;50.328;15.014;2023-06-22T00:43:19;11.13;;;6.47;;
75894;SDS011;64573;50.328;15.014;2023-06-22T00:45:45;12.13;;;5.95;;
75894;SDS011;64573;50.328;15.014;2023-06-22T00:48:10;11.50;;;6.18;;
75894;SDS011;64573;50.328;15.014;2023-06-22T00:50:37;15.20;;;6.63;;
75894;SDS011;64573;50.328;15.014;2023-06-22T00:53:03;9.82;;;5.97;;
75894;SDS011;64573;50.328;15.014;2023-06-22T00:55:35;10.20;;;6.35;;
75894;SDS011;64573;50.328;15.014;2023-06-22T00:58:04;11.77;;;6.40;;
75894;SDS011;64573;50.328;15.014;2023-06-22T01:00:33;9.55;;;6.47;;
75894;SDS011;64573;50.328;15.014;2023-06-22T01:02:59;13.02;;;6.65;;
75894;SDS011;64573;50.328;15.014;2023-06-22T01:05:24;11.10;;;6.53;;
75894;SDS011;64573;50.328;15.014;2023-06-22T01:15:34;12.77;;;6.43;;
75894;SDS011;64573;50.328;15.014;2023-06-22T01:18:04;9.43;;;6.68;;
75894;SDS011;64573;50.328;15.014;2023-06-22T01:20:34;10.80;;;7.07;;
75894;SDS011;64573;50.328;15.014;2023-06-22T01:23:09;16.52;;;7.15;;
75894;SDS011;64573;50.328;15.014;2023-06-22T01:25:48;12.77;;;7.10;;
75894;SDS011;64573;50.328;15.014;2023-06-22T01:28:33;10.30;;;7.72;;
75894;SDS011;64573;50.328;15.014;2023-06-22T01:31:08;9.63;;;7.00;;
75894;SDS011;64573;50.328;15.014;2023-06-22T01:33:36;14.68;;;6.97;;
75894;SDS011;64573;50.328;15.014;2023-06-22T01:36:04;11.07;;;7.32;;
75894;SDS011;64573;50.328;15.014;2023-06-22T01:38:30;10.93;;;6.88;;
75894;SDS011;64573;50.328;15.014;2023-06-22T01:40:57;12.18;;;6.78;;
75894;SDS011;64573;50.328;15.014;2023-06-22T01:43:27;13.30;;;7.43;;
75894;SDS011;64573;50.328;15.014;2023-06-22T01:45:54;11.10;;;7.00;;
75894;SDS011;64573;50.328;15.014;2023-06-22T01:48:20;12.05;;;6.57;;
75894;SDS011;64573;50.328;15.014;2023-06-22T01:50:47;11.45;;;7.30;;
75894;SDS011;64573;50.328;15.014;2023-06-22T01:53:13;12.25;;;6.63;;
75894;SDS011;64573;50.328;15.014;2023-06-22T01:55:38;13.73;;;7.53;;
75894;SDS011;64573;50.328;15.014;2023-06-22T01:58:03;14.73;;;6.93;;
75894;SDS011;64573;50.328;15.014;2023-06-22T02:00:30;17.38;;;6.63;;
75894;SDS011;64573;50.328;15.014;2023-06-22T02:05:48;13.05;;;6.60;;
75894;SDS011;64573;50.328;15.014;2023-06-22T02:08:25;12.15;;;6.25;;
75894;SDS011;64573;50.328;15.014;2023-06-22T02:10:55;10.32;;;6.75;;
75894;SDS011;64573;50.328;15.014;2023-06-22T02:13:23;10.10;;;6.05;;
75894;SDS011;64573;50.328;15.014;2023-06-22T02:15:49;11.45;;;5.65;;
75894;SDS011;64573;50.328;15.014;2023-06-22T02:18:15;11.13;;;6.20;;
75894;SDS011;64573;50.328;15.014;2023-06-22T02:20:41;12.85;;;5.43;;
75894;SDS011;64573;50.328;15.014;2023-06-22T02:23:06;14.30;;;6.95;;
75894;SDS011;64573;50.328;15.014;2023-06-22T02:25:32;9.70;;;5.45;;
75894;SDS011;64573;50.328;15.014;2023-06-22T02:27:57;14.35;;;6.20;;
75894;SDS011;64573;50.328;15.014;2023-06-22T02:30:23;12.48;;;6.28;;
75894;SDS011;64573;50.328;15.014;2023-06-22T02:32:48;14.82;;;6.05;;
75894;SDS011;64573;50.328;15.014;2023-06-22T02:35:14;13.48;;;6.25;;
75894;SDS011;64573;50.328;15.014;2023-06-22T02:37:39;12.93;;;6.32;;
75894;SDS011;64573;50.328;15.014;2023-06-22T02:40:07;13.73;;;6.13;;
75894;SDS011;64573;50.328;15.014;2023-06-22T02:42:34;12.35;;;6.38;;
75894;SDS011;64573;50.328;15.014;2023-06-22T02:45:00;13.70;;;6.38;;
75894;SDS011;64573;50.328;15.014;2023-06-22T02:47:25;14.07;;;6.20;;
75894;SDS011;64573;50.328;15.014;2023-06-22T02:49:51;10.98;;;5.97;;
75894;SDS011;64573;50.328;15.014;2023-06-22T02:52:16;10.80;;;6.47;;
75894;SDS011;64573;50.328;15.014;2023-06-22T02:54:42;11.50;;;6.15;;
75894;SDS011;64573;50.328;15.014;2023-06-22T02:59:36;13.63;;;6.28;;
75894;SDS011;64573;50.328;15.014;2023-06-22T03:02:05;10.15;;;5.65;;
75894;SDS011;64573;50.328;15.014;2023-06-22T03:04:31;12.02;;;5.13;;
75894;SDS011;64573;50.328;15.014;2023-06-22T03:06:57;12.50;;;5.93;;
75894;SDS011;64573;50.328;15.014;2023-06-22T03:09:26;8.85;;;5.60;;
75894;SDS011;64573;50.328;15.014;2023-06-22T03:11:52;15.88;;;5.43;;
75894;SDS011;64573;50.328;15.014;2023-06-22T03:14:18;11.07;;;5.20;;
75894;SDS011;64573;50.328;15.014;2023-06-22T03:16:43;13.45;;;5.78;;
75894;SDS011;64573;50.328;15.014;2023-06-22T03:19:08;9.13;;;5.20;;
75894;SDS011;64573;50.328;15.014;2023-06-22T03:21:34;11.20;;;5.10;;
75894;SDS011;64573;50.328;15.014;2023-06-22T03:23:59;7.10;;;4.25;;
75894;SDS011;64573;50.328;15.014;2023-06-22T03:26:25;12.10;;;4.65;;
75894;SDS011;64573;50.328;15.014;2023-06-22T03:28:51;8.75;;;4.72;;
75894;SDS011;64573;50.328;15.014;2023-06-22T03:31:17;9.23;;;3.88;;
75894;SDS011;64573;50.328;15.014;2023-06-22T03:33:46;6.95;;;4.00;;
75894;SDS011;64573;50.328;15.014;2023-06-22T03:36:11;9.43;;;3.78;;
75894;SDS011;64573;50.328;15.014;2023-06-22T03:38:37;6.07;;;3.78;;
75894;SDS011;64573;50.328;15.014;2023-06-22T03:41:02;8.45;;;4.25;;
75894;SDS011;64573;50.328;15.014;2023-06-22T03:43:28;10.35;;;4.15;;
75894;SDS011;64573;50.328;15.014;2023-06-22T03:45:53;11.82;;;4.00;;
75894;SDS011;64573;50.328;15.014;2023-06-22T03:48:19;11.57;;;4.40;;
75894;SDS011;64573;50.328;15.014;2023-06-22T03:50:44;7.80;;;4.13;;
75894;SDS011;64573;50.328;15.014;2023-06-22T03:53:09;10.52;;;4.82;;
75894;SDS011;64573;50.328;15.014;2023-06-22T03:55:35;8.95;;;4.10;;
75894;SDS011;64573;50.328;15.014;2023-06-22T03:58:01;9.85;;;4.30;;
75894;SDS011;64573;50.328;15.014;2023-06-22T04:00:30;10.38;;;5.40;;
75894;SDS011;64573;50.328;15.014;2023-06-22T04:02:56;14.88;;;4.68;;
75894;SDS011;64573;50.328;15.014;2023-06-22T04:05:21;10.23;;;4.25;;
75894;SDS011;64573;50.328;15.014;2023-06-22T04:07:46;7.63;;;4.00;;
75894;SDS011;64573;50.328;15.014;2023-06-22T04:10:12;8.68;;;3.92;;
75894;SDS011;64573;50.328;15.014;2023-06-22T04:12:37;6.07;;;3.72;;
75894;SDS011;64573;50.328;15.014;2023-06-22T04:15:02;9.35;;;4.15;;
75894;SDS011;64573;50.328;15.014;2023-06-22T04:17:28;7.72;;;3.70;;
75894;SDS011;64573;50.328;15.014;2023-06-22T04:19:53;11.88;;;4.50;;
75894;SDS011;64573;50.328;15.014;2023-06-22T04:22:19;6.55;;;4.28;;
75894;SDS011;64573;50.328;15.014;2023-06-22T04:24:44;11.32;;;4.20;;
75894;SDS011;64573;50.328;15.014;2023-06-22T04:29:34;9.25;;;4.10;;
75894;SDS011;64573;50.328;15.014;2023-06-22T04:32:00;10.75;;;4.20;;
75894;SDS011;64573;50.328;15.014;2023-06-22T04:34:28;9.88;;;4.03;;
75894;SDS011;64573;50.328;15.014;2023-06-22T04:36:54;9.90;;;4.18;;
75894;SDS011;64573;50.328;15.014;2023-06-22T04:39:19;9.43;;;4.30;;
75894;SDS011;64573;50.328;15.014;2023-06-22T04:41:45;9.25;;;4.47;;
75894;SDS011;64573;50.328;15.014;2023-06-22T04:44:11;11.07;;;4.10;;
75894;SDS011;64573;50.328;15.014;2023-06-22T04:46:37;9.38;;;4.28;;
75894;SDS011;64573;50.328;15.014;2023-06-22T04:49:12;8.43;;;4.20;;
75894;SDS011;64573;50.328;15.014;2023-06-22T04:51:39;7.18;;;4.43;;
75894;SDS011;64573;50.328;15.014;2023-06-22T04:54:06;9.55;;;4.18;;
75894;SDS011;64573;50.328;15.014;2023-06-22T04:56:32;8.88;;;4.70;;
75894;SDS011;64573;50.328;15.014;2023-06-22T04:58:57;8.85;;;4.03;;
75894;SDS011;64573;50.328;15.014;2023-06-22T05:01:23;9.88;;;4.28;;
75894;SDS011;64573;50.328;15.014;2023-06-22T05:03:49;7.35;;;4.15;;
75894;SDS011;64573;50.328;15.014;2023-06-22T05:06:14;7.47;;;3.95;;
75894;SDS011;64573;50.328;15.014;2023-06-22T05:08:40;6.97;;;4.00;;
75894;SDS011;64573;50.328;15.014;2023-06-22T05:11:06;7.30;;;4.47;;
75894;SDS011;64573;50.328;15.014;2023-06-22T05:13:31;9.07;;;4.05;;
75894;SDS011;64573;50.328;15.014;2023-06-22T05:15:57;7.72;;;3.70;;
75894;SDS011;64573;50.328;15.014;2023-06-22T05:18:30;8.15;;;4.07;;
75894;SDS011;64573;50.328;15.014;2023-06-22T05:20:56;6.70;;;4.20;;
75894;SDS011;64573;50.328;15.014;2023-06-22T05:23:23;7.80;;;3.78;;
75894;SDS011;64573;50.328;15.014;2023-06-22T05:25:48;14.10;;;4.28;;
75894;SDS011;64573;50.328;15.014;2023-06-22T05:28:14;8.00;;;3.65;;
75894;SDS011;64573;50.328;15.014;2023-06-22T05:30:39;8.13;;;3.88;;
75894;SDS011;64573;50.328;15.014;2023-06-22T05:33:04;5.97;;;3.50;;
75894;SDS011;64573;50.328;15.014;2023-06-22T05:35:30;6.35;;;3.60;;
75894;SDS011;64573;50.328;15.014;2023-06-22T05:37:56;6.95;;;4.00;;
75894;SDS011;64573;50.328;15.014;2023-06-22T05:40:21;7.35;;;3.50;;
75894;SDS011;64573;50.328;15.014;2023-06-22T05:42:47;7.35;;;4.05;;
75894;SDS011;64573;50.328;15.014;2023-06-22T05:45:12;8.18;;;3.75;;
75894;SDS011;64573;50.328;15.014;2023-06-22T05:47:38;8.68;;;3.78;;
75894;SDS011;64573;50.328;15.014;2023-06-22T05:50:03;7.70;;;4.03;;
75894;SDS011;64573;50.328;15.014;2023-06-22T05:55:01;7.70;;;3.78;;
75894;SDS011;64573;50.328;15.014;2023-06-22T05:57:27;10.82;;;3.97;;
75894;SDS011;64573;50.328;15.014;2023-06-22T05:59:52;10.93;;;4.25;;
75894;SDS011;64573;50.328;15.014;2023-06-22T06:02:18;8.38;;;3.70;;
75894;SDS011;64573;50.328;15.014;2023-06-22T06:04:44;9.43;;;4.18;;
75894;SDS011;64573;50.328;15.014;2023-06-22T06:07:09;6.57;;;3.72;;
75894;SDS011;64573;50.328;15.014;2023-06-22T06:09:35;6.50;;;3.80;;
75894;SDS011;64573;50.328;15.014;2023-06-22T06:12:00;9.93;;;4.07;;
75894;SDS011;64573;50.328;15.014;2023-06-22T06:14:27;10.98;;;4.30;;
75894;SDS011;64573;50.328;15.014;2023-06-22T06:16:53;8.77;;;4.80;;
75894;SDS011;64573;50.328;15.014;2023-06-22T06:19:18;8.98;;;4.57;;
75894;SDS011;64573;50.328;15.014;2023-06-22T06:21:44;9.30;;;4.60;;
75894;SDS011;64573;50.328;15.014;2023-06-22T06:24:09;6.18;;;4.13;;
75894;SDS011;64573;50.328;15.014;2023-06-22T06:26:35;11.15;;;4.82;;
75894;SDS011;64573;50.328;15.014;2023-06-22T06:29:00;7.80;;;4.40;;
75894;SDS011;64573;50.328;15.014;2023-06-22T06:31:27;11.00;;;5.15;;
75894;SDS011;64573;50.328;15.014;2023-06-22T06:33:53;6.55;;;4.40;;
75894;SDS011;64573;50.328;15.014;2023-06-22T06:36:19;6.55;;;4.57;;
75894;SDS011;64573;50.328;15.014;2023-06-22T06:38:45;8.55;;;4.85;;
75894;SDS011;64573;50.328;15.014;2023-06-22T06:41:12;7.75;;;5.07;;
75894;SDS011;64573;50.328;15.014;2023-06-22T06:43:41;9.07;;;4.80;;
75894;SDS011;64573;50.328;15.014;2023-06-22T06:46:08;12.27;;;5.28;;
75894;SDS011;64573;50.328;15.014;2023-06-22T06:48:33;9.73;;;4.65;;
75894;SDS011;64573;50.328;15.014;2023-06-22T06:50:59;8.43;;;5.10;;
75894;SDS011;64573;50.328;15.014;2023-06-22T06:53:24;8.52;;;4.55;;
75894;SDS011;64573;50.328;15.014;2023-06-22T06:55:49;6.80;;;4.63;;
75894;SDS011;64573;50.328;15.014;2023-06-22T06:58:15;7.80;;;5.30;;
75894;SDS011;64573;50.328;15.014;2023-06-22T07:00:41;8.35;;;4.88;;
75894;SDS011;64573;50.328;15.014;2023-06-22T07:03:06;9.82;;;4.95;;
75894;SDS011;64573;50.328;15.014;2023-06-22T07:05:32;6.60;;;4.75;;
75894;SDS011;64573;50.328;15.014;2023-06-22T07:07:57;9.23;;;5.15;;
75894;SDS011;64573;50.328;15.014;2023-06-22T07:10:23;7.57;;;5.40;;
75894;SDS011;64573;50.328;15.014;2023-06-22T07:12:48;8.30;;;4.90;;
75894;SDS011;64573;50.328;15.014;2023-06-22T07:15:13;9.45;;;4.72;;
75894;SDS011;64573;50.328;15.014;2023-06-22T07:17:39;7.22;;;5.07;;
75894;SDS011;64573;50.328;15.014;2023-06-22T07:20:08;10.05;;;5.35;;
75894;SDS011;64573;50.328;15.014;2023-06-22T07:22:35;6.85;;;5.25;;
75894;SDS011;64573;50.328;15.014;2023-06-22T07:25:01;8.85;;;5.13;;
75894;SDS011;64573;50.328;15.014;2023-06-22T07:27:33;8.48;;;4.85;;
75894;SDS011;64573;50.328;15.014;2023-06-22T07:30:02;8.38;;;5.50;;
75894;SDS011;64573;50.328;15.014;2023-06-22T07:32:27;7.20;;;4.75;;
75894;SDS011;64573;50.328;15.014;2023-06-22T07:34:55;8.18;;;5.22;;
75894;SDS011;64573;50.328;15.014;2023-06-22T07:39:46;6.43;;;4.93;;
75894;SDS011;64573;50.328;15.014;2023-06-22T07:42:11;6.95;;;4.63;;
75894;SDS011;64573;50.328;15.014;2023-06-22T07:44:37;9.70;;;4.90;;
75894;SDS011;64573;50.328;15.014;2023-06-22T07:47:02;9.90;;;5.22;;
75894;SDS011;64573;50.328;15.014;2023-06-22T07:49:27;7.15;;;4.85;;
75894;SDS011;64573;50.328;15.014;2023-06-22T07:51:53;7.47;;;4.82;;
75894;SDS011;64573;50.328;15.014;2023-06-22T07:54:18;7.75;;;4.82;;
75894;SDS011;64573;50.328;15.014;2023-06-22T07:56:43;7.38;;;4.93;;
75894;SDS011;64573;50.328;15.014;2023-06-22T07:59:09;6.93;;;4.72;;
75894;SDS011;64573;50.328;15.014;2023-06-22T08:01:34;9.55;;;5.20;;
75894;SDS011;64573;50.328;15.014;2023-06-22T08:03:59;5.32;;;4.78;;
75894;SDS011;64573;50.328;15.014;2023-06-22T08:06:25;7.68;;;5.15;;
75894;SDS011;64573;50.328;15.014;2023-06-22T08:08:50;6.70;;;5.03;;
75894;SDS011;64573;50.328;15.014;2023-06-22T08:11:17;8.68;;;4.75;;
75894;SDS011;64573;50.328;15.014;2023-06-22T08:13:43;9.32;;;5.10;;
75894;SDS011;64573;50.328;15.014;2023-06-22T08:16:08;6.85;;;4.93;;
75894;SDS011;64573;50.328;15.014;2023-06-22T08:18:33;8.93;;;5.65;;
75894;SDS011;64573;50.328;15.014;2023-06-22T08:20:59;9.10;;;5.25;;
75894;SDS011;64573;50.328;15.014;2023-06-22T08:23:24;6.70;;;5.32;;
75894;SDS011;64573;50.328;15.014;2023-06-22T08:25:50;8.23;;;5.50;;
75894;SDS011;64573;50.328;15.014;2023-06-22T08:28:15;6.65;;;5.70;;
75894;SDS011;64573;50.328;15.014;2023-06-22T08:30:41;8.45;;;5.55;;
75894;SDS011;64573;50.328;15.014;2023-06-22T08:33:06;8.38;;;5.72;;
75894;SDS011;64573;50.328;15.014;2023-06-22T08:35:32;7.35;;;5.57;;
75894;SDS011;64573;50.328;15.014;2023-06-22T08:37:57;8.65;;;5.55;;
75894;SDS011;64573;50.328;15.014;2023-06-22T08:40:23;8.90;;;5.93;;
75894;SDS011;64573;50.328;15.014;2023-06-22T08:42:49;6.90;;;5.60;;
75894;SDS011;64573;50.328;15.014;2023-06-22T08:45:15;8.85;;;6.05;;
75894;SDS011;64573;50.328;15.014;2023-06-22T08:47:41;10.68;;;5.68;;
75894;SDS011;64573;50.328;15.014;2023-06-22T08:50:07;7.78;;;5.88;;
75894;SDS011;64573;50.328;15.014;2023-06-22T08:52:34;6.78;;;5.25;;
75894;SDS011;64573;50.328;15.014;2023-06-22T08:55:00;7.78;;;5.75;;
75894;SDS011;64573;50.328;15.014;2023-06-22T08:57:25;7.72;;;6.18;;
75894;SDS011;64573;50.328;15.014;2023-06-22T08:59:51;7.40;;;5.95;;
75894;SDS011;64573;50.328;15.014;2023-06-22T09:02:18;6.43;;;5.63;;
75894;SDS011;64573;50.328;15.014;2023-06-22T09:04:44;7.90;;;5.55;;
75894;SDS011;64573;50.328;15.014;2023-06-22T09:09:39;9.82;;;5.88;;
75894;SDS011;64573;50.328;15.014;2023-06-22T09:12:04;6.68;;;5.65;;
75894;SDS011;64573;50.328;15.014;2023-06-22T09:14:30;7.75;;;5.30;;
75894;SDS011;64573;50.328;15.014;2023-06-22T09:16:55;6.60;;;4.93;;
75894;SDS011;64573;50.328;15.014;2023-06-22T09:19:20;8.50;;;5.55;;
75894;SDS011;64573;50.328;15.014;2023-06-22T09:21:46;7.70;;;5.78;;
75894;SDS011;64573;50.328;15.014;2023-06-22T09:24:11;6.25;;;5.55;;
75894;SDS011;64573;50.328;15.014;2023-06-22T09:26:36;6.10;;;5.38;;
75894;SDS011;64573;50.328;15.014;2023-06-22T09:29:04;7.22;;;5.90;;
75894;SDS011;64573;50.328;15.014;2023-06-22T09:31:30;12.85;;;5.70;;
75894;SDS011;64573;50.328;15.014;2023-06-22T09:33:56;8.07;;;5.55;;
75894;SDS011;64573;50.328;15.014;2023-06-22T09:36:21;8.90;;;5.40;;
75894;SDS011;64573;50.328;15.014;2023-06-22T09:38:47;12.40;;;5.13;;
75894;SDS011;64573;50.328;15.014;2023-06-22T09:41:13;7.72;;;5.55;;
75894;SDS011;64573;50.328;15.014;2023-06-22T09:43:38;6.00;;;5.35;;
75894;SDS011;64573;50.328;15.014;2023-06-22T09:46:04;6.47;;;5.28;;
75894;SDS011;64573;50.328;15.014;2023-06-22T09:48:29;7.53;;;5.38;;
75894;SDS011;64573;50.328;15.014;2023-06-22T09:50:55;6.55;;;4.95;;
75894;SDS011;64573;50.328;15.014;2023-06-22T09:53:21;7.22;;;5.30;;
75894;SDS011;64573;50.328;15.014;2023-06-22T09:55:47;8.55;;;6.03;;
75894;SDS011;64573;50.328;15.014;2023-06-22T09:58:12;8.63;;;5.95;;
75894;SDS011;64573;50.328;15.014;2023-06-22T10:00:37;8.10;;;5.63;;
75894;SDS011;64573;50.328;15.014;2023-06-22T10:03:03;9.63;;;6.05;;
75894;SDS011;64573;50.328;15.014;2023-06-22T10:05:28;7.13;;;5.63;;
75894;SDS011;64573;50.328;15.014;2023-06-22T10:07:53;6.93;;;6.00;;
75894;SDS011;64573;50.328;15.014;2023-06-22T10:10:19;8.40;;;5.35;;
75894;SDS011;64573;50.328;15.014;2023-06-22T10:12:48;8.43;;;5.88;;
75894;SDS011;64573;50.328;15.014;2023-06-22T10:15:21;7.35;;;5.95;;
75894;SDS011;64573;50.328;15.014;2023-06-22T10:17:46;6.82;;;5.55;;
75894;SDS011;64573;50.328;15.014;2023-06-22T10:20:12;8.00;;;5.72;;
75894;SDS011;64573;50.328;15.014;2023-06-22T10:22:41;6.78;;;5.68;;
75894;SDS011;64573;50.328;15.014;2023-06-22T10:25:08;6.68;;;5.97;;
75894;SDS011;64573;50.328;15.014;2023-06-22T10:27:36;8.27;;;5.90;;
75894;SDS011;64573;50.328;15.014;2023-06-22T10:30:01;8.30;;;5.60;;
75894;SDS011;64573;50.328;15.014;2023-06-22T10:32:27;6.43;;;5.05;;
75894;SDS011;64573;50.328;15.014;2023-06-22T10:34:53;7.40;;;5.22;;
75894;SDS011;64573;50.328;15.014;2023-06-22T10:37:19;7.75;;;5.32;;
75894;SDS011;64573;50.328;15.014;2023-06-22T10:39:44;9.02;;;5.65;;
75894;SDS011;64573;50.328;15.014;2023-06-22T10:42:10;6.28;;;5.60;;
75894;SDS011;64573;50.328;15.014;2023-06-22T10:44:35;6.57;;;5.20;;
75894;SDS011;64573;50.328;15.014;2023-06-22T10:47:00;6.10;;;5.18;;
75894;SDS011;64573;50.328;15.014;2023-06-22T10:49:25;7.20;;;5.53;;
75894;SDS011;64573;50.328;15.014;2023-06-22T10:51:51;6.28;;;5.53;;
75894;SDS011;64573;50.328;15.014;2023-06-22T10:54:16;6.00;;;5.25;;
75894;SDS011;64573;50.328;15.014;2023-06-22T10:56:44;10.13;;;5.18;;
75894;SDS011;64573;50.328;15.014;2023-06-22T10:59:09;7.38;;;5.60;;
75894;SDS011;64573;50.328;15.014;2023-06-22T11:01:34;7.35;;;5.28;;
75894;SDS011;64573;50.328;15.014;2023-06-22T11:04:00;6.78;;;5.80;;
75894;SDS011;64573;50.328;15.014;2023-06-22T11:06:25;7.97;;;5.80;;
75894;SDS011;64573;50.328;15.014;2023-06-22T11:08:51;6.80;;;5.75;;
75894;SDS011;64573;50.328;15.014;2023-06-22T11:11:16;7.40;;;4.82;;
75894;SDS011;64573;50.328;15.014;2023-06-22T11:13:42;6.70;;;5.00;;
75894;SDS011;64573;50.328;15.014;2023-06-22T11:16:08;6.90;;;4.65;;
75894;SDS011;64573;50.328;15.014;2023-06-22T11:18:34;8.38;;;4.70;;
75894;SDS011;64573;50.328;15.014;2023-06-22T11:21:00;5.20;;;4.38;;
75894;SDS011;64573;50.328;15.014;2023-06-22T11:23:25;5.50;;;4.93;;
75894;SDS011;64573;50.328;15.014;2023-06-22T11:25:52;5.32;;;4.82;;
75894;SDS011;64573;50.328;15.014;2023-06-22T11:28:17;7.38;;;4.43;;
75894;SDS011;64573;50.328;15.014;2023-06-22T11:30:43;5.82;;;4.82;;
75894;SDS011;64573;50.328;15.014;2023-06-22T11:33:08;5.38;;;4.50;;
75894;SDS011;64573;50.328;15.014;2023-06-22T11:35:33;7.10;;;4.72;;
75894;SDS011;64573;50.328;15.014;2023-06-22T11:37:59;7.25;;;5.10;;
75894;SDS011;64573;50.328;15.014;2023-06-22T11:40:24;5.85;;;4.93;;
75894;SDS011;64573;50.328;15.014;2023-06-22T11:42:49;5.35;;;4.65;;
75894;SDS011;64573;50.328;15.014;2023-06-22T11:45:15;7.93;;;5.32;;
75894;SDS011;64573;50.328;15.014;2023-06-22T11:47:42;7.72;;;5.25;;
75894;SDS011;64573;50.328;15.014;2023-06-22T11:50:07;5.80;;;4.68;;
75894;SDS011;64573;50.328;15.014;2023-06-22T11:52:33;8.43;;;5.13;;
75894;SDS011;64573;50.328;15.014;2023-06-22T11:55:01;6.70;;;4.80;;
75894;SDS011;64573;50.328;15.014;2023-06-22T11:57:28;6.45;;;5.40;;
75894;SDS011;64573;50.328;15.014;2023-06-22T11:59:54;5.75;;;5.15;;
75894;SDS011;64573;50.328;15.014;2023-06-22T12:02:19;7.10;;;5.18;;
75894;SDS011;64573;50.328;15.014;2023-06-22T12:04:44;6.30;;;4.80;;
75894;SDS011;64573;50.328;15.014;2023-06-22T12:09:39;6.10;;;4.63;;
75894;SDS011;64573;50.328;15.014;2023-06-22T12:12:04;5.85;;;4.90;;
75894;SDS011;64573;50.328;15.014;2023-06-22T12:14:30;5.95;;;4.30;;
75894;SDS011;64573;50.328;15.014;2023-06-22T12:16:58;6.20;;;4.43;;
75894;SDS011;64573;50.328;15.014;2023-06-22T12:19:23;5.57;;;4.20;;
75894;SDS011;64573;50.328;15.014;2023-06-22T12:21:48;7.90;;;4.90;;
75894;SDS011;64573;50.328;15.014;2023-06-22T12:24:14;7.35;;;4.40;;
75894;SDS011;64573;50.328;15.014;2023-06-22T12:26:39;8.55;;;5.07;;
75894;SDS011;64573;50.328;15.014;2023-06-22T12:29:04;7.55;;;4.82;;
75894;SDS011;64573;50.328;15.014;2023-06-22T12:31:30;7.43;;;5.07;;
75894;SDS011;64573;50.328;15.014;2023-06-22T12:33:55;6.93;;;4.78;;
75894;SDS011;64573;50.328;15.014;2023-06-22T12:36:20;9.82;;;4.90;;
75894;SDS011;64573;50.328;15.014;2023-06-22T12:38:45;6.82;;;4.55;;
75894;SDS011;64573;50.328;15.014;2023-06-22T12:41:11;6.40;;;4.97;;
75894;SDS011;64573;50.328;15.014;2023-06-22T12:43:36;8.00;;;4.90;;
75894;SDS011;64573;50.328;15.014;2023-06-22T12:46:01;7.70;;;4.95;;
75894;SDS011;64573;50.328;15.014;2023-06-22T12:48:27;9.60;;;4.82;;
75894;SDS011;64573;50.328;15.014;2023-06-22T12:50:52;8.13;;;5.20;;
75894;SDS011;64573;50.328;15.014;2023-06-22T12:53:18;7.32;;;5.07;;
75894;SDS011;64573;50.328;15.014;2023-06-22T12:55:43;8.60;;;4.90;;
75894;SDS011;64573;50.328;15.014;2023-06-22T12:58:08;9.07;;;5.03;;
75894;SDS011;64573;50.328;15.014;2023-06-22T13:00:34;8.32;;;4.90;;
75894;SDS011;64573;50.328;15.014;2023-06-22T13:02:59;7.65;;;5.25;;
75894;SDS011;64573;50.328;15.014;2023-06-22T13:05:25;7.72;;;5.68;;
75894;SDS011;64573;50.328;15.014;2023-06-22T13:07:51;7.88;;;5.40;;
75894;SDS011;64573;50.328;15.014;2023-06-22T13:10:17;10.18;;;4.82;;
75894;SDS011;64573;50.328;15.014;2023-06-22T13:15:12;7.07;;;5.00;;
75894;SDS011;64573;50.328;15.014;2023-06-22T13:17:37;6.10;;;4.93;;
75894;SDS011;64573;50.328;15.014;2023-06-22T13:20:03;6.00;;;4.80;;
75894;SDS011;64573;50.328;15.014;2023-06-22T13:22:30;6.95;;;4.82;;
75894;SDS011;64573;50.328;15.014;2023-06-22T13:24:57;8.30;;;5.00;;
75894;SDS011;64573;50.328;15.014;2023-06-22T13:27:23;5.68;;;4.90;;
75894;SDS011;64573;50.328;15.014;2023-06-22T13:29:48;6.93;;;5.25;;
75894;SDS011;64573;50.328;15.014;2023-06-22T13:32:14;10.05;;;5.32;;
75894;SDS011;64573;50.328;15.014;2023-06-22T13:34:39;8.10;;;5.57;;
75894;SDS011;64573;50.328;15.014;2023-06-22T13:37:05;7.63;;;5.72;;
75894;SDS011;64573;50.328;15.014;2023-06-22T13:39:30;7.15;;;5.43;;
75894;SDS011;64573;50.328;15.014;2023-06-22T13:41:57;7.63;;;5.43;;
75894;SDS011;64573;50.328;15.014;2023-06-22T13:44:23;7.70;;;5.90;;
75894;SDS011;64573;50.328;15.014;2023-06-22T13:46:52;7.78;;;5.60;;
75894;SDS011;64573;50.328;15.014;2023-06-22T13:49:18;9.48;;;5.28;;
75894;SDS011;64573;50.328;15.014;2023-06-22T13:51:43;9.02;;;5.97;;
75894;SDS011;64573;50.328;15.014;2023-06-22T13:54:08;8.13;;;5.50;;
75894;SDS011;64573;50.328;15.014;2023-06-22T13:56:34;8.25;;;5.60;;
75894;SDS011;64573;50.328;15.014;2023-06-22T13:58:59;9.70;;;6.20;;
75894;SDS011;64573;50.328;15.014;2023-06-22T14:01:25;6.60;;;5.82;;
75894;SDS011;64573;50.328;15.014;2023-06-22T14:03:50;9.35;;;5.93;;
75894;SDS011;64573;50.328;15.014;2023-06-22T14:06:15;8.07;;;5.38;;
75894;SDS011;64573;50.328;15.014;2023-06-22T14:08:41;7.82;;;5.90;;
75894;SDS011;64573;50.328;15.014;2023-06-22T14:11:09;6.78;;;5.60;;
75894;SDS011;64573;50.328;15.014;2023-06-22T14:13:35;7.68;;;5.72;;
75894;SDS011;64573;50.328;15.014;2023-06-22T14:16:01;7.13;;;5.38;;
75894;SDS011;64573;50.328;15.014;2023-06-22T14:18:28;11.63;;;6.35;;
75894;SDS011;64573;50.328;15.014;2023-06-22T14:20:54;6.95;;;5.65;;
75894;SDS011;64573;50.328;15.014;2023-06-22T14:23:19;8.57;;;6.50;;
75894;SDS011;64573;50.328;15.014;2023-06-22T14:25:44;8.43;;;6.10;;
75894;SDS011;64573;50.328;15.014;2023-06-22T14:28:10;8.48;;;5.75;;
75894;SDS011;64573;50.328;15.014;2023-06-22T14:30:35;8.88;;;5.68;;
75894;SDS011;64573;50.328;15.014;2023-06-22T14:33:03;6.65;;;5.65;;
75894;SDS011;64573;50.328;15.014;2023-06-22T14:35:29;9.00;;;5.82;;
75894;SDS011;64573;50.328;15.014;2023-06-22T14:37:54;10.30;;;5.50;;
75894;SDS011;64573;50.328;15.014;2023-06-22T14:40:19;8.60;;;5.55;;
75894;SDS011;64573;50.328;15.014;2023-06-22T14:42:45;7.90;;;5.35;;
75894;SDS011;64573;50.328;15.014;2023-06-22T14:45:10;8.00;;;5.35;;
75894;SDS011;64573;50.328;15.014;2023-06-22T14:47:35;6.85;;;5.68;;
75894;SDS011;64573;50.328;15.014;2023-06-22T14:50:01;7.80;;;5.53;;
75894;SDS011;64573;50.328;15.014;2023-06-22T14:52:26;7.63;;;5.55;;